createdAt,value
2018-05-11T08:35:36.780Z,2168
2018-05-11T08:36:17.343Z,2180
2018-05-11T08:36:57.922Z,2184
2018-05-11T08:37:38.576Z,2204
2018-05-11T08:38:19.140Z,2224
2018-05-11T08:38:59.694Z,2256
2018-05-11T08:39:40.244Z,2284
2018-05-11T08:40:20.828Z,2280
2018-05-11T08:41:01.477Z,2256
2018-05-11T08:41:41.951Z,2240
2018-05-11T08:42:22.528Z,2248
2018-05-11T08:43:03.073Z,2256
2018-05-11T08:43:43.643Z,2260
2018-05-11T08:44:24.202Z,2260
2018-05-11T08:45:04.759Z,2268
2018-05-11T08:45:45.332Z,2240
2018-05-11T08:46:25.924Z,2196
2018-05-11T08:47:06.479Z,2144
2018-05-11T08:47:47.066Z,2108
2018-05-11T08:48:27.639Z,2080
2018-05-11T08:49:08.217Z,2068
2018-05-11T08:49:48.796Z,2048
2018-05-11T08:50:29.358Z,2012
2018-05-11T08:51:09.954Z,1968
2018-05-11T08:51:50.627Z,1920
2018-05-11T08:52:31.203Z,1880
2018-05-11T08:53:11.822Z,1856
2018-05-11T08:53:52.554Z,1852
2018-05-11T08:54:33.256Z,1856
2018-05-11T08:55:13.819Z,1860
2018-05-11T08:55:54.593Z,1868
2018-05-11T08:56:35.050Z,1864
2018-05-11T08:57:15.740Z,1860
2018-05-11T08:57:56.231Z,1864
2018-05-11T08:58:36.778Z,1868
2018-05-11T08:59:17.336Z,1884
2018-05-11T08:59:57.904Z,1908
2018-05-11T09:00:38.443Z,1936
2018-05-11T09:01:19.034Z,1960
2018-05-11T09:01:59.598Z,1992
2018-05-11T09:02:40.189Z,2004
2018-05-11T09:03:20.807Z,2024
2018-05-11T09:04:01.444Z,2044
2018-05-11T09:04:41.973Z,2072
2018-05-11T09:05:22.523Z,2120
2018-05-11T09:06:03.084Z,2184
2018-05-11T09:06:43.652Z,2292
2018-05-11T09:07:24.233Z,2440
2018-05-11T09:08:04.787Z,2600
2018-05-11T09:08:45.351Z,2764
2018-05-11T09:09:25.960Z,2984
2018-05-11T09:10:06.548Z,3244
2018-05-11T09:10:47.105Z,3500
2018-05-11T09:11:27.671Z,3760
2018-05-11T09:12:08.288Z,4048
2018-05-11T09:12:48.845Z,4320
2018-05-11T09:13:29.395Z,4656
2018-05-11T09:14:09.956Z,5104
2018-05-11T09:14:50.553Z,5400
2018-05-11T09:15:31.193Z,5392
2018-05-11T09:16:11.739Z,5304
2018-05-11T09:16:52.308Z,5184
2018-05-11T09:17:32.903Z,4996
2018-05-11T09:18:13.481Z,4932
2018-05-11T09:18:54.062Z,5076
2018-05-11T09:19:34.595Z,5352
2018-05-11T09:20:15.207Z,5572
2018-05-11T09:20:55.833Z,5660
2018-05-11T09:21:36.379Z,5624
2018-05-11T09:22:16.970Z,5540
2018-05-11T09:22:57.530Z,5416
2018-05-11T09:23:38.160Z,5340
2018-05-11T09:24:18.719Z,5416
2018-05-11T09:24:59.341Z,5448
2018-05-11T09:25:39.890Z,5448
2018-05-11T09:26:20.473Z,5408
2018-05-11T09:27:01.011Z,5304
2018-05-11T09:27:41.560Z,5264
2018-05-11T09:28:22.124Z,5228
2018-05-11T09:29:02.681Z,5196
2018-05-11T09:29:43.248Z,5160
2018-05-11T09:30:23.809Z,5108
2018-05-11T09:31:04.376Z,4964
2018-05-11T09:31:44.925Z,4832
2018-05-11T09:32:25.511Z,4684
2018-05-11T09:33:06.074Z,4576
2018-05-11T09:33:46.633Z,4540
2018-05-11T09:34:27.250Z,4500
2018-05-11T09:35:07.808Z,4416
2018-05-11T09:35:48.386Z,4336
2018-05-11T09:36:28.969Z,4252
2018-05-11T09:37:09.529Z,4172
2018-05-11T09:37:50.223Z,4100
2018-05-11T09:38:30.784Z,4012
2018-05-11T09:39:11.352Z,3924
2018-05-11T09:39:51.991Z,3880
2018-05-11T09:40:32.511Z,3920
2018-05-11T09:41:13.280Z,4036
2018-05-11T09:41:53.846Z,4204
2018-05-11T09:42:34.412Z,4388
2018-05-11T09:43:14.978Z,4536
2018-05-11T09:43:55.628Z,4648
2018-05-11T09:44:36.174Z,4796
2018-05-11T09:45:16.715Z,4988
2018-05-11T09:45:57.259Z,5164
2018-05-11T09:46:37.964Z,5236
2018-05-11T09:47:18.566Z,5168
2018-05-11T09:47:59.163Z,5064
2018-05-11T09:48:39.720Z,4956
2018-05-11T09:49:20.308Z,4860
2018-05-11T09:50:00.878Z,4712
2018-05-11T09:50:41.452Z,4436
2018-05-11T09:51:22.049Z,4140
2018-05-11T09:52:02.620Z,3952
2018-05-11T09:52:43.167Z,3936
2018-05-11T09:53:23.709Z,4168
2018-05-11T09:54:04.295Z,4488
2018-05-11T09:54:44.883Z,4900
2018-05-11T09:55:25.438Z,5736
2018-05-11T09:56:06.012Z,6832
2018-05-11T09:56:46.590Z,7460
2018-05-11T09:57:27.157Z,7492
2018-05-11T09:58:07.705Z,7256
2018-05-11T09:58:48.255Z,7096
2018-05-11T09:59:28.862Z,7136
2018-05-11T10:00:09.418Z,6868
2018-05-11T10:00:50.025Z,6344
2018-05-11T10:01:30.743Z,5828
2018-05-11T10:02:11.316Z,5620
2018-05-11T10:02:51.878Z,5712
2018-05-11T10:03:32.427Z,5852
2018-05-11T10:04:12.990Z,5924
2018-05-11T10:04:53.552Z,5796
2018-05-11T10:05:34.093Z,5492
2018-05-11T10:06:14.645Z,5156
2018-05-11T10:06:55.187Z,4888
2018-05-11T10:07:35.726Z,4748
2018-05-11T10:08:16.301Z,4708
2018-05-11T10:08:56.852Z,4732
2018-05-11T10:09:37.411Z,4684
2018-05-11T10:10:17.977Z,4568
2018-05-11T10:10:58.560Z,4388
2018-05-11T10:11:39.120Z,4192
2018-05-11T10:12:19.717Z,3960
2018-05-11T10:13:00.345Z,3800
2018-05-11T10:13:40.905Z,3708
2018-05-11T10:14:21.480Z,3648
2018-05-11T10:15:02.042Z,3644
2018-05-11T10:15:42.658Z,3652
2018-05-11T10:16:23.225Z,3664
2018-05-11T10:17:03.786Z,3712
2018-05-11T10:17:44.366Z,3768
2018-05-11T10:18:24.934Z,3792
2018-05-11T10:19:05.518Z,3832
2018-05-11T10:19:46.059Z,3908
2018-05-11T10:20:26.614Z,4008
2018-05-11T10:21:07.160Z,3976
2018-05-11T10:21:47.726Z,3820
2018-05-11T10:22:28.298Z,3672
2018-05-11T10:23:08.872Z,3560
2018-05-11T10:23:49.455Z,3484
2018-05-11T10:24:29.995Z,3468
2018-05-11T10:25:10.590Z,3508
2018-05-11T10:25:51.144Z,3560
2018-05-11T10:26:31.706Z,3616
2018-05-11T10:27:12.268Z,3692
2018-05-11T10:27:52.818Z,3768
2018-05-11T10:28:33.371Z,3824
2018-05-11T10:29:13.915Z,3856
2018-05-11T10:29:54.442Z,3868
2018-05-11T10:30:35.004Z,3900
2018-05-11T10:31:15.560Z,3948
2018-05-11T10:31:56.187Z,4008
2018-05-11T10:32:36.733Z,4108
2018-05-11T10:33:17.301Z,4252
2018-05-11T10:33:57.935Z,4460
2018-05-11T10:34:38.508Z,4628
2018-05-11T10:35:19.081Z,4748
2018-05-11T10:35:59.640Z,4820
2018-05-11T10:36:40.257Z,4888
2018-05-11T10:37:20.846Z,4936
2018-05-11T10:38:01.422Z,4880
2018-05-11T10:38:41.971Z,4728
2018-05-11T10:39:22.524Z,4552
2018-05-11T10:40:03.081Z,4396
2018-05-11T10:40:43.658Z,4200
2018-05-11T10:41:24.608Z,3956
2018-05-11T10:42:05.162Z,3776
2018-05-11T10:42:45.711Z,3704
2018-05-11T10:43:26.327Z,3640
2018-05-11T10:44:06.907Z,3624
2018-05-11T10:44:47.500Z,3636
2018-05-11T10:45:28.061Z,3624
2018-05-11T10:46:08.625Z,3536
2018-05-11T10:46:49.181Z,3412
2018-05-11T10:47:29.749Z,3312
2018-05-11T10:48:10.330Z,3232
2018-05-11T10:48:50.902Z,3152
2018-05-11T10:49:31.443Z,3072
2018-05-11T10:50:11.990Z,3012
2018-05-11T10:50:52.550Z,2964
2018-05-11T10:51:33.211Z,2944
2018-05-11T10:52:13.810Z,2936
2018-05-11T10:52:54.358Z,2952
2018-05-11T10:53:34.931Z,2956
2018-05-11T10:54:15.548Z,2948
2018-05-11T10:54:56.130Z,2936
2018-05-11T10:55:36.734Z,2912
2018-05-11T10:56:17.331Z,2876
2018-05-11T10:56:57.901Z,2848
2018-05-11T10:57:38.474Z,2816
2018-05-11T10:58:19.042Z,2784
2018-05-11T10:58:59.583Z,2748
2018-05-11T10:59:40.160Z,2712
2018-05-11T11:00:20.729Z,2668
2018-05-11T11:01:01.339Z,2632
2018-05-11T11:01:41.909Z,2612
2018-05-11T11:02:22.487Z,2588
2018-05-11T11:03:03.017Z,2564
2018-05-11T11:03:43.622Z,2520
2018-05-11T11:04:24.151Z,2476
2018-05-11T11:05:04.708Z,2448
2018-05-11T11:05:45.287Z,2412
2018-05-11T11:06:25.864Z,2384
2018-05-11T11:07:06.447Z,2376
2018-05-11T11:07:47.027Z,2376
2018-05-11T11:08:27.573Z,2392
2018-05-11T11:09:08.158Z,2424
2018-05-11T11:09:48.748Z,2448
2018-05-11T11:10:29.293Z,2480
2018-05-11T11:11:09.849Z,2512
2018-05-11T11:11:50.419Z,2556
2018-05-11T11:12:30.980Z,2596
2018-05-11T11:13:11.557Z,2644
2018-05-11T11:13:52.111Z,2684
2018-05-11T11:14:32.687Z,2736
2018-05-11T11:15:13.243Z,2792
2018-05-11T11:15:53.791Z,2832
2018-05-11T11:16:34.361Z,2856
2018-05-11T11:17:14.906Z,2852
2018-05-11T11:17:55.467Z,2840
2018-05-11T11:18:36.030Z,2812
2018-05-11T11:19:16.578Z,2772
2018-05-11T11:19:57.273Z,2724
2018-05-11T11:20:37.671Z,2680
2018-05-11T11:21:18.224Z,2632
2018-05-11T11:21:58.786Z,2588
2018-05-11T11:22:39.346Z,2556
2018-05-11T11:23:19.910Z,2532
2018-05-11T11:24:00.530Z,2520
2018-05-11T11:24:41.096Z,2508
2018-05-11T11:25:21.655Z,2504
2018-05-11T11:26:02.318Z,2500
2018-05-11T11:26:42.802Z,2496
2018-05-11T11:27:23.355Z,2492
2018-05-11T11:28:03.923Z,2496
2018-05-11T11:28:44.484Z,2512
2018-05-11T11:29:25.056Z,2524
2018-05-11T11:30:05.634Z,2532
2018-05-11T11:30:46.218Z,2536
2018-05-11T11:31:26.787Z,2556
2018-05-11T11:32:07.340Z,2584
2018-05-11T11:32:47.904Z,2632
2018-05-11T11:33:28.476Z,2692
2018-05-11T11:34:09.045Z,2756
2018-05-11T11:34:49.648Z,2820
2018-05-11T11:35:30.205Z,2884
2018-05-11T11:36:10.786Z,2944
2018-05-11T11:36:51.329Z,3000
2018-05-11T11:37:31.899Z,3052
2018-05-11T11:38:12.468Z,3088
2018-05-11T11:38:53.037Z,3132
2018-05-11T11:39:33.604Z,3172
2018-05-11T11:40:14.163Z,3200
2018-05-11T11:40:54.736Z,3204
2018-05-11T11:41:35.296Z,3196
2018-05-11T11:42:15.877Z,3152
2018-05-11T11:42:56.429Z,3096
2018-05-11T11:43:37.004Z,3028
2018-05-11T11:44:17.646Z,2964
2018-05-11T11:44:58.218Z,2912
2018-05-11T11:45:38.788Z,2868
2018-05-11T11:46:19.329Z,2836
2018-05-11T11:46:59.903Z,2812
2018-05-11T11:47:40.458Z,2800
2018-05-11T11:48:21.007Z,2788
2018-05-11T11:49:01.562Z,2784
2018-05-11T11:49:42.146Z,2768
2018-05-11T11:50:22.749Z,2760
2018-05-11T11:51:03.297Z,2748
2018-05-11T11:51:43.877Z,2728
2018-05-11T11:52:24.436Z,2708
2018-05-11T11:53:05.016Z,2692
2018-05-11T11:53:45.598Z,2668
2018-05-11T11:54:26.139Z,2632
2018-05-11T11:55:06.721Z,2592
2018-05-11T11:55:47.278Z,2536
2018-05-11T11:56:27.889Z,2460
2018-05-11T11:57:08.441Z,2416
2018-05-11T11:57:49.020Z,2424
2018-05-11T11:58:29.601Z,2452
2018-05-11T11:59:10.147Z,2456
2018-05-11T11:59:50.736Z,2428
2018-05-11T12:00:31.294Z,2396
2018-05-11T12:01:11.882Z,2352
2018-05-11T12:01:52.541Z,2400
2018-05-11T12:02:33.001Z,2480
2018-05-11T12:03:13.567Z,2548
2018-05-11T12:03:54.103Z,2640
2018-05-11T12:04:34.773Z,2732
2018-05-11T12:05:15.624Z,2828
2018-05-11T12:05:56.317Z,2960
2018-05-11T12:06:36.865Z,3068
2018-05-11T12:07:17.580Z,3108
2018-05-11T12:07:58.254Z,3092
2018-05-11T12:08:38.841Z,3040
2018-05-11T12:09:19.427Z,3000
2018-05-11T12:10:00.006Z,2980
2018-05-11T12:10:40.689Z,2972
2018-05-11T12:11:21.272Z,2976
2018-05-11T12:12:01.879Z,2960
2018-05-11T12:12:42.484Z,2900
2018-05-11T12:13:23.070Z,2820
2018-05-11T12:14:03.704Z,2748
2018-05-11T12:14:44.313Z,2692
2018-05-11T12:15:24.881Z,2644
2018-05-11T12:16:05.473Z,2592
2018-05-11T12:16:46.102Z,2540
2018-05-11T12:17:26.674Z,2504
2018-05-11T12:18:07.322Z,2460
2018-05-11T12:18:47.908Z,2444
2018-05-11T12:19:28.489Z,2432
2018-05-11T12:20:09.045Z,2428
2018-05-11T12:20:49.624Z,2440
2018-05-11T12:21:30.222Z,2464
2018-05-11T12:22:10.793Z,2496
2018-05-11T12:22:51.403Z,2532
2018-05-11T12:23:32.004Z,2568
2018-05-11T12:24:12.625Z,2596
2018-05-11T12:24:53.157Z,2612
2018-05-11T12:25:33.673Z,2612
2018-05-11T12:26:14.294Z,2612
2018-05-11T12:26:54.830Z,2612
2018-05-11T12:27:35.389Z,2604
2018-05-11T12:28:15.980Z,2600
2018-05-11T12:28:56.538Z,2596
2018-05-11T12:29:37.101Z,2584
2018-05-11T12:30:17.699Z,2556
2018-05-11T12:30:58.286Z,2516
2018-05-11T12:31:38.845Z,2460
2018-05-11T12:32:19.416Z,2392
2018-05-11T12:32:59.976Z,2336
2018-05-11T12:33:40.538Z,2316
2018-05-11T12:34:21.256Z,2332
2018-05-11T12:35:02.341Z,2360
2018-05-11T12:35:43.386Z,2408
2018-05-11T12:36:24.268Z,2456
2018-05-11T12:37:04.935Z,2496
2018-05-11T12:37:45.570Z,2516
2018-05-11T12:38:26.313Z,2516
2018-05-11T12:39:06.895Z,2496
2018-05-11T12:39:47.598Z,2456
2018-05-11T12:40:28.422Z,2420
2018-05-11T12:41:09.134Z,2388
2018-05-11T12:41:49.881Z,2360
2018-05-11T12:42:30.634Z,2332
2018-05-11T12:43:11.367Z,2300
2018-05-11T12:43:52.104Z,2264
2018-05-11T12:44:32.660Z,2228
2018-05-11T12:45:13.230Z,2192
2018-05-11T12:45:53.871Z,2152
2018-05-11T12:46:34.457Z,2108
2018-05-11T12:47:14.981Z,2068
2018-05-11T12:47:55.625Z,2036
2018-05-11T12:48:36.294Z,2008
2018-05-11T12:49:16.872Z,1984
2018-05-11T12:49:57.566Z,1972
2018-05-11T12:50:38.130Z,1968
2018-05-11T12:51:18.678Z,1960
2018-05-11T12:51:59.245Z,1960
2018-05-11T12:52:40.389Z,1960
2018-05-11T12:53:21.350Z,1960
2018-05-11T12:54:02.152Z,1964
2018-05-11T12:54:42.932Z,1976
2018-05-11T12:55:23.611Z,1988
2018-05-11T12:56:04.156Z,2000
2018-05-11T12:56:44.898Z,1992
2018-05-11T12:57:25.666Z,1976
2018-05-11T12:58:06.240Z,1956
2018-05-11T12:58:46.788Z,1936
2018-05-11T12:59:27.325Z,1920
2018-05-11T13:00:07.886Z,1912
2018-05-11T13:00:48.447Z,1916
2018-05-11T13:01:29.023Z,1932
2018-05-11T13:02:09.593Z,1964
2018-05-11T13:02:50.154Z,1996
2018-05-11T13:03:30.750Z,2036
2018-05-11T13:04:11.397Z,2076
2018-05-11T13:04:51.942Z,2104
2018-05-11T13:05:32.544Z,2124
2018-05-11T13:06:13.096Z,2136
2018-05-11T13:06:53.659Z,2140
2018-05-11T13:07:34.216Z,2144
2018-05-11T13:08:14.767Z,2148
2018-05-11T13:08:55.325Z,2152
2018-05-11T13:09:35.878Z,2160
2018-05-11T13:10:16.488Z,2164
2018-05-11T13:10:57.065Z,2176
2018-05-11T13:11:37.600Z,2192
2018-05-11T13:12:18.159Z,2224
2018-05-11T13:12:58.749Z,2260
2018-05-11T13:13:39.285Z,2300
2018-05-11T13:14:19.843Z,2332
2018-05-11T13:15:00.403Z,2340
2018-05-11T13:15:40.958Z,2328
2018-05-11T13:16:21.700Z,2304
2018-05-11T13:17:02.148Z,2276
2018-05-11T13:17:42.720Z,2244
2018-05-11T13:18:23.563Z,2220
2018-05-11T13:19:04.135Z,2208
2018-05-11T13:19:44.757Z,2204
2018-05-11T13:20:25.436Z,2220
2018-05-11T13:21:05.884Z,2236
2018-05-11T13:21:46.462Z,2260
2018-05-11T13:22:27.022Z,2272
2018-05-11T13:23:07.595Z,2268
2018-05-11T13:23:48.152Z,2248
2018-05-11T13:24:29.003Z,2212
2018-05-11T13:25:10.672Z,2168
2018-05-11T13:25:51.241Z,2128
2018-05-11T13:26:31.794Z,2096
2018-05-11T13:27:12.361Z,2056
2018-05-11T13:27:53.031Z,2024
2018-05-11T13:28:33.613Z,2004
2018-05-11T13:29:14.230Z,1992
2018-05-11T13:29:54.794Z,1976
2018-05-11T13:30:35.454Z,1960
2018-05-11T13:31:15.940Z,1940
2018-05-11T13:31:56.515Z,1916
2018-05-11T13:32:37.101Z,1888
2018-05-11T13:33:17.660Z,1860
2018-05-11T13:33:58.207Z,1824
2018-05-11T13:34:38.783Z,1792
2018-05-11T13:35:19.350Z,1752
2018-05-11T13:35:59.957Z,1720
2018-05-11T13:36:40.804Z,1688
2018-05-11T13:37:21.368Z,1664
2018-05-11T13:38:01.938Z,1640
2018-05-11T13:38:42.494Z,1628
2018-05-11T13:39:23.082Z,1620
2018-05-11T13:40:03.661Z,1608
2018-05-11T13:40:44.203Z,1600
2018-05-11T13:41:24.772Z,1588
2018-05-11T13:42:05.349Z,1588
2018-05-11T13:42:45.911Z,1588
2018-05-11T13:43:26.490Z,1596
2018-05-11T13:44:07.052Z,1608
2018-05-11T13:44:47.598Z,1620
2018-05-11T13:45:28.175Z,1628
2018-05-11T13:46:08.758Z,1632
2018-05-11T13:46:49.337Z,1628
2018-05-11T13:47:29.903Z,1620
2018-05-11T13:48:10.543Z,1600
2018-05-11T13:48:51.073Z,1568
2018-05-11T13:49:31.646Z,1536
2018-05-11T13:50:12.204Z,1516
2018-05-11T13:50:52.768Z,1508
2018-05-11T13:51:33.324Z,1500
2018-05-11T13:52:13.899Z,1508
2018-05-11T13:52:54.466Z,1516
2018-05-11T13:53:35.054Z,1532
2018-05-11T13:54:15.622Z,1540
2018-05-11T13:54:56.176Z,1552
2018-05-11T13:55:36.728Z,1552
2018-05-11T13:56:17.396Z,1552
2018-05-11T13:56:57.854Z,1544
2018-05-11T13:57:38.393Z,1532
2018-05-11T13:58:18.959Z,1528
2018-05-11T13:58:59.533Z,1520
2018-05-11T13:59:40.106Z,1520
2018-05-11T14:00:20.691Z,1520
2018-05-11T14:01:01.214Z,1524
2018-05-11T14:01:41.803Z,1536
2018-05-11T14:02:22.367Z,1548
2018-05-11T14:03:02.915Z,1564
2018-05-11T14:03:43.483Z,1584
2018-05-11T14:04:24.064Z,1596
2018-05-11T14:05:04.647Z,1612
2018-05-11T14:05:45.197Z,1616
2018-05-11T14:06:25.792Z,1620
2018-05-11T14:07:06.356Z,1612
2018-05-11T14:07:46.948Z,1604
2018-05-11T14:08:27.513Z,1600
2018-05-11T14:09:08.079Z,1612
2018-05-11T14:09:48.635Z,1624
2018-05-11T14:10:29.208Z,1644
2018-05-11T14:11:09.813Z,1672
2018-05-11T14:11:50.378Z,1708
2018-05-11T14:12:31.129Z,1740
2018-05-11T14:13:11.696Z,1772
2018-05-11T14:13:52.238Z,1796
2018-05-11T14:14:32.794Z,1820
2018-05-11T14:15:13.335Z,1844
2018-05-11T14:15:53.894Z,1840
2018-05-11T14:16:34.483Z,1840
2018-05-11T14:17:15.052Z,1832
2018-05-11T14:17:55.726Z,1828
2018-05-11T14:18:36.174Z,1808
2018-05-11T14:19:16.736Z,1800
2018-05-11T14:19:57.295Z,1788
2018-05-11T14:20:37.852Z,1792
2018-05-11T14:21:18.399Z,1808
2018-05-11T14:21:58.954Z,1836
2018-05-11T14:22:39.506Z,1876
2018-05-11T14:23:20.080Z,1916
2018-05-11T14:24:00.634Z,1952
2018-05-11T14:24:41.210Z,1972
2018-05-11T14:25:21.785Z,1980
2018-05-11T14:26:02.350Z,1976
2018-05-11T14:26:42.929Z,1968
2018-05-11T14:27:23.545Z,1952
2018-05-11T14:28:04.132Z,1932
2018-05-11T14:28:44.723Z,1912
2018-05-11T14:29:25.298Z,1900
2018-05-11T14:30:05.858Z,1896
2018-05-11T14:30:46.418Z,1892
2018-05-11T14:31:26.981Z,1896
2018-05-11T14:32:07.551Z,1904
2018-05-11T14:32:48.099Z,1904
2018-05-11T14:33:28.668Z,1916
2018-05-11T14:34:09.219Z,1920
2018-05-11T14:34:49.792Z,1932
2018-05-11T14:35:30.363Z,1944
2018-05-11T14:36:10.920Z,1956
2018-05-11T14:36:51.499Z,1968
2018-05-11T14:37:32.062Z,1976
2018-05-11T14:38:12.633Z,1984
2018-05-11T14:38:53.217Z,1984
2018-05-11T14:39:33.771Z,1988
2018-05-11T14:40:14.318Z,1992
2018-05-11T14:40:54.877Z,1996
2018-05-11T14:41:35.430Z,1988
2018-05-11T14:42:16.010Z,1976
2018-05-11T14:42:56.547Z,1956
2018-05-11T14:43:37.107Z,1932
2018-05-11T14:44:17.670Z,1904
2018-05-11T14:44:58.229Z,1876
2018-05-11T14:45:38.794Z,1844
2018-05-11T14:46:19.364Z,1816
2018-05-11T14:46:59.936Z,1784
2018-05-11T14:47:40.513Z,1752
2018-05-11T14:48:21.062Z,1728
2018-05-11T14:49:01.633Z,1700
2018-05-11T14:49:42.253Z,1688
2018-05-11T14:50:22.770Z,1684
2018-05-11T14:51:03.341Z,1688
2018-05-11T14:51:43.907Z,1704
2018-05-11T14:52:24.505Z,1728
2018-05-11T14:53:05.101Z,1764
2018-05-11T14:53:45.672Z,1784
2018-05-11T14:54:26.245Z,1804
2018-05-11T14:55:06.822Z,1820
2018-05-11T14:55:47.395Z,1836
2018-05-11T14:56:27.964Z,1856
2018-05-11T14:57:08.505Z,1872
2018-05-11T14:57:49.120Z,1884
2018-05-11T14:58:29.623Z,1880
2018-05-11T14:59:10.160Z,1868
2018-05-11T14:59:50.765Z,1860
2018-05-11T15:00:31.329Z,1852
2018-05-11T15:01:11.876Z,1848
2018-05-11T15:01:52.446Z,1840
2018-05-11T15:02:33.001Z,1828
2018-05-11T15:03:13.558Z,1816
2018-05-11T15:03:54.125Z,1792
2018-05-11T15:04:34.725Z,1764
2018-05-11T15:05:15.302Z,1724
2018-05-11T15:05:55.874Z,1684
2018-05-11T15:06:36.472Z,1644
2018-05-11T15:07:17.052Z,1608
2018-05-11T15:07:57.609Z,1580
2018-05-11T15:08:38.182Z,1556
2018-05-11T15:09:18.739Z,1540
2018-05-11T15:09:59.293Z,1528
2018-05-11T15:10:39.834Z,1520
2018-05-11T15:11:20.427Z,1524
2018-05-11T15:12:00.980Z,1536
2018-05-11T15:12:41.561Z,1560
2018-05-11T15:13:22.140Z,1580
2018-05-11T15:14:02.708Z,1600
2018-05-11T15:14:43.261Z,1620
2018-05-11T15:15:23.875Z,1636
2018-05-11T15:16:04.426Z,1652
2018-05-11T15:16:44.981Z,1664
2018-05-11T15:17:25.561Z,1676
2018-05-11T15:18:06.152Z,1684
2018-05-11T15:18:46.742Z,1692
2018-05-11T15:19:27.287Z,1704
2018-05-11T15:20:07.857Z,1724
2018-05-11T15:20:48.413Z,1744
2018-05-11T15:21:29.018Z,1768
2018-05-11T15:22:09.562Z,1808
2018-05-11T15:22:50.137Z,1848
2018-05-11T15:23:30.690Z,1888
2018-05-11T15:24:11.269Z,1924
2018-05-11T15:24:51.842Z,1960
2018-05-11T15:25:32.385Z,1992
2018-05-11T15:26:12.959Z,2028
2018-05-11T15:26:53.510Z,2068
2018-05-11T15:27:34.076Z,2104
2018-05-11T15:28:14.632Z,2140
2018-05-11T15:28:55.201Z,2168
2018-05-11T15:29:35.810Z,2180
2018-05-11T15:30:16.401Z,2168
2018-05-11T15:30:56.951Z,2136
2018-05-11T15:31:37.528Z,2100
2018-05-11T15:32:18.072Z,2072
2018-05-11T15:32:58.632Z,2056
2018-05-11T15:33:39.242Z,2036
2018-05-11T15:34:19.805Z,2008
2018-05-11T15:35:00.385Z,1972
2018-05-11T15:35:40.906Z,1936
2018-05-11T15:36:21.468Z,1884
2018-05-11T15:37:02.058Z,1844
2018-05-11T15:37:42.608Z,1808
2018-05-11T15:38:23.185Z,1772
2018-05-11T15:39:03.760Z,1728
2018-05-11T15:39:44.327Z,1680
2018-05-11T15:40:25.001Z,1648
2018-05-11T15:41:05.506Z,1624
2018-05-11T15:41:46.062Z,1620
2018-05-11T15:42:26.617Z,1620
2018-05-11T15:43:07.160Z,1620
2018-05-11T15:43:47.719Z,1628
2018-05-11T15:44:28.294Z,1628
2018-05-11T15:45:08.924Z,1604
2018-05-11T15:45:49.476Z,1568
2018-05-11T15:46:30.046Z,1512
2018-05-11T15:47:10.613Z,1448
2018-05-11T15:47:51.182Z,1388
2018-05-11T15:48:31.758Z,1328
2018-05-11T15:49:12.319Z,1276
2018-05-11T15:49:52.880Z,1232
2018-05-11T15:50:33.463Z,1188
2018-05-11T15:51:14.032Z,1152
2018-05-11T15:51:54.596Z,1124
2018-05-11T15:52:35.163Z,1096
2018-05-11T15:53:15.750Z,1068
2018-05-11T15:53:56.289Z,1048
2018-05-11T15:54:36.898Z,1028
2018-05-11T15:55:17.507Z,1020
2018-05-11T15:55:58.072Z,1016
2018-05-11T15:56:38.638Z,1008
2018-05-11T15:57:19.197Z,1004
2018-05-11T15:57:59.762Z,1004
2018-05-11T15:58:40.353Z,1000
2018-05-11T15:59:20.913Z,996
2018-05-11T16:00:01.513Z,984
2018-05-11T16:00:42.073Z,964
2018-05-11T16:01:22.642Z,936
2018-05-11T16:02:03.203Z,900
2018-05-11T16:02:43.754Z,860
2018-05-11T16:03:24.321Z,828
2018-05-11T16:04:04.883Z,796
2018-05-11T16:04:45.463Z,768
2018-05-11T16:05:26.017Z,748
2018-05-11T16:06:06.584Z,732
2018-05-11T16:06:47.156Z,716
2018-05-11T16:07:27.707Z,704
2018-05-11T16:08:08.271Z,688
2018-05-11T16:08:48.841Z,676
2018-05-11T16:09:29.401Z,672
2018-05-11T16:10:09.962Z,660
2018-05-11T16:10:50.583Z,656
2018-05-11T16:11:31.178Z,648
2018-05-11T16:12:11.723Z,640
2018-05-11T16:12:52.467Z,636
2018-05-11T16:13:32.874Z,628
2018-05-11T16:14:13.438Z,620
2018-05-11T16:14:54.018Z,612
2018-05-11T16:15:34.570Z,600
2018-05-11T16:16:15.172Z,588
2018-05-11T16:16:55.713Z,576
2018-05-11T16:17:36.295Z,564
2018-05-11T16:18:16.869Z,552
2018-05-11T16:18:57.438Z,544
2018-05-11T16:19:37.995Z,528
2018-05-11T16:20:18.575Z,520
2018-05-11T16:20:59.127Z,512
2018-05-11T16:21:39.771Z,504
2018-05-11T16:22:20.335Z,492
2018-05-11T16:23:00.896Z,484
2018-05-11T16:23:41.457Z,476
2018-05-11T16:24:22.031Z,468
2018-05-11T16:25:02.620Z,464
2018-05-11T16:25:43.158Z,464
2018-05-11T16:26:23.710Z,468
2018-05-11T16:27:04.279Z,476
2018-05-11T16:27:44.854Z,480
2018-05-11T16:28:25.599Z,484
2018-05-11T16:29:05.972Z,488
2018-05-11T16:29:46.540Z,488
2018-05-11T16:30:27.087Z,488
2018-05-11T16:31:07.651Z,484
2018-05-11T16:31:48.213Z,480
2018-05-11T16:32:28.759Z,476
2018-05-11T16:33:09.333Z,472
2018-05-11T16:33:49.895Z,468
2018-05-11T16:34:30.438Z,460
2018-05-11T16:35:11.012Z,460
2018-05-11T16:35:51.566Z,456
2018-05-11T16:36:32.159Z,456
2018-05-11T16:37:12.742Z,452
2018-05-11T16:37:53.334Z,452
2018-05-11T16:38:33.827Z,448
2018-05-11T16:39:14.402Z,440
2018-05-11T16:39:54.964Z,440
2018-05-11T16:40:35.609Z,436
2018-05-11T16:41:16.108Z,432
2018-05-11T16:41:56.696Z,432
2018-05-11T16:42:37.236Z,432
2018-05-11T16:43:17.794Z,432
2018-05-11T16:43:58.333Z,436
2018-05-11T16:44:38.896Z,436
2018-05-11T16:45:19.434Z,440
2018-05-11T16:46:00.014Z,440
2018-05-11T16:46:40.589Z,444
2018-05-11T16:47:21.190Z,444
2018-05-11T16:48:01.789Z,444
2018-05-11T16:48:42.335Z,448
2018-05-11T16:49:22.946Z,448
2018-05-11T16:50:03.568Z,452
2018-05-11T16:50:44.105Z,448
2018-05-11T16:51:24.661Z,444
2018-05-11T16:52:05.252Z,436
2018-05-11T16:52:45.813Z,428
2018-05-11T16:53:26.391Z,420
2018-05-11T16:54:06.930Z,412
2018-05-11T16:54:47.487Z,404
2018-05-11T16:55:28.070Z,400
2018-05-11T16:56:08.632Z,392
2018-05-11T16:56:49.211Z,384
2018-05-11T16:57:29.750Z,380
2018-05-11T16:58:10.327Z,376
2018-05-11T16:58:50.874Z,372
2018-05-11T16:59:31.420Z,368
2018-05-11T17:00:12.001Z,372
2018-05-11T17:00:52.572Z,368
2018-05-11T17:01:33.147Z,368
2018-05-11T17:02:13.700Z,364
2018-05-11T17:02:54.251Z,360
2018-05-11T17:03:34.826Z,356
2018-05-11T17:04:15.405Z,352
2018-05-11T17:04:55.983Z,348
2018-05-11T17:05:36.538Z,340
2018-05-11T17:06:17.184Z,344
2018-05-11T17:06:57.709Z,344
2018-05-11T17:07:38.294Z,340
2018-05-11T17:08:18.839Z,340
2018-05-11T17:08:59.422Z,344
2018-05-11T17:09:40.012Z,348
2018-05-11T17:10:20.568Z,352
2018-05-11T17:11:01.107Z,352
2018-05-11T17:11:41.672Z,348
2018-05-11T17:12:22.242Z,344
2018-05-11T17:13:02.805Z,344
2018-05-11T17:13:43.369Z,352
2018-05-11T17:14:23.924Z,360
2018-05-11T17:15:04.498Z,360
2018-05-11T17:15:45.081Z,364
2018-05-11T17:16:25.748Z,360
2018-05-11T17:17:06.227Z,352
2018-05-11T17:17:46.785Z,344
2018-05-11T17:18:27.345Z,336
2018-05-11T17:19:07.917Z,324
2018-05-11T17:19:48.480Z,320
2018-05-11T17:20:29.047Z,316
2018-05-11T17:21:09.636Z,312
2018-05-11T17:21:50.178Z,308
2018-05-11T17:22:30.770Z,308
2018-05-11T17:23:11.333Z,308
2018-05-11T17:23:51.901Z,304
2018-05-11T17:24:32.456Z,308
2018-05-11T17:25:13.018Z,304
2018-05-11T17:25:53.592Z,304
2018-05-11T17:26:34.153Z,300
2018-05-11T17:27:14.719Z,300
2018-05-11T17:27:55.291Z,296
2018-05-11T17:28:35.823Z,296
2018-05-11T17:29:16.413Z,300
2018-05-11T17:29:56.990Z,296
2018-05-11T17:30:37.528Z,296
2018-05-11T17:31:18.103Z,296
2018-05-11T17:31:58.679Z,296
2018-05-11T17:32:39.277Z,292
2018-05-11T17:33:19.843Z,288
2018-05-11T17:34:00.416Z,284
2018-05-11T17:34:40.984Z,284
2018-05-11T17:35:21.623Z,284
2018-05-11T17:36:02.122Z,276
2018-05-11T17:36:42.703Z,276
2018-05-11T17:37:23.271Z,276
2018-05-11T17:38:03.824Z,272
2018-05-11T17:38:44.396Z,268